| time (UTC) | temp C | wind direction | speed KPH | gust KPH | rain 1hr cm | rain 24hr cm | rain mn cm | humidity % | barometer mb |
| 20260504160121 | 21 | 259 | 3.2 | 11.3 | 0.00 | 0.00 | 0.00 | 41 | 1014.2 |
| 20260504151012 | 19 | 97 | 3.2 | 8.0 | 0.00 | 0.00 | 0.00 | 46 | 1014.7 |
| 20260504150616 | 20 | 291 | 3.2 | 12.9 | 0.00 | 0.00 | 0.00 | 46 | 1014.7 |
| 20260504150118 | 18 | 0 | 1.6 | 14.5 | 0.00 | 0.00 | 0.00 | 48 | 1014.7 |
| 20260504141011 | 17 | 299 | 4.8 | 16.1 | 0.00 | 0.00 | 0.00 | 51 | 1015.0 |
| 20260504140508 | 17 | 297 | 3.2 | 11.3 | 0.00 | 0.00 | 0.00 | 52 | 1015.0 |
| 20260504140244 | 17 | 245 | 3.2 | 11.3 | 0.00 | 0.00 | 0.00 | 52 | 1015.1 |
| 20260504130640 | 16 | 215 | 3.2 | 14.5 | 0.00 | 0.00 | 0.00 | 54 | 1015.4 |
| 20260504130510 | 16 | 215 | 3.2 | 14.5 | 0.00 | 0.00 | 0.00 | 54 | 1015.4 |
| 20260504110511 | 6 | 0 | 0.0 | 0.0 | 0.00 | 0.00 | 0.00 | 88 | 1016.4 |
| 20260504100510 | 3 | 0 | 0.0 | 0.0 | 0.00 | 0.00 | 0.00 | 89 | 1016.5 |
| 20260504081527 | 3 | 0 | 0.0 | 0.0 | 0.00 | 0.00 | 0.00 | 87 | 1016.4 |
| 20260504081013 | 4 | 0 | 0.0 | 0.0 | 0.00 | 0.00 | 0.00 | 86 | 1016.3 |
| 20260504080509 | 3 | 0 | 0.0 | 0.0 | 0.00 | 0.00 | 0.00 | 85 | 1016.2 |
| 20260504050511 | 4 | 0 | 0.0 | 1.6 | 0.00 | 0.00 | 0.00 | 77 | 1015.9 |
| 20260504045507 | 4 | 0 | 0.0 | 0.0 | 0.00 | 0.00 | 0.00 | 77 | 1015.7 |
| 20260504045009 | 4 | 0 | 0.0 | 0.0 | 0.00 | 0.00 | 0.00 | 77 | 1015.7 |
| 20260504044531 | 4 | 0 | 0.0 | 1.6 | 0.00 | 0.00 | 0.00 | 76 | 1015.7 |
| 20260504044010 | 4 | 0 | 0.0 | 1.6 | 0.00 | 0.00 | 0.00 | 75 | 1015.7 |
| 20260504043510 | 4 | 0 | 0.0 | 0.0 | 0.00 | 0.00 | 0.00 | 75 | 1015.7 |
| 20260504043042 | 4 | 0 | 0.0 | 0.0 | 0.00 | 0.00 | 0.00 | 75 | 1015.7 |
| 20260504042509 | 4 | 0 | 0.0 | 0.0 | 0.00 | 0.00 | 0.00 | 76 | 1015.7 |
| 20260504042008 | 4 | 0 | 0.0 | 0.0 | 0.00 | 0.00 | 0.00 | 75 | 1015.7 |
| 20260504041535 | 4 | 0 | 0.0 | 0.0 | 0.00 | 0.00 | 0.00 | 75 | 1015.7 |
| 20260504041007 | 4 | 0 | 0.0 | 0.0 | 0.00 | 0.00 | 0.00 | 75 | 1015.6 |
| 20260504040509 | 4 | 0 | 0.0 | 0.0 | 0.00 | 0.00 | 0.00 | 75 | 1015.5 |
| 20260504040124 | 4 | 0 | 0.0 | 0.0 | 0.00 | 0.00 | 0.00 | 74 | 1015.5 |
| 20260504040029 | 4 | 0 | 0.0 | 0.0 | 0.00 | 0.00 | 0.00 | 74 | 1015.5 |
| 20260504035511 | 4 | 0 | 0.0 | 0.0 | 0.00 | 0.00 | 0.00 | 74 | 1015.5 |
| 20260504035009 | 4 | 0 | 0.0 | 0.0 | 0.00 | 0.00 | 0.00 | 76 | 1015.5 |
| 20260504034528 | 4 | 0 | 0.0 | 0.0 | 0.00 | 0.00 | 0.00 | 75 | 1015.4 |
| 20260504034013 | 4 | 0 | 0.0 | 0.0 | 0.00 | 0.00 | 0.00 | 73 | 1015.3 |
| 20260504033511 | 4 | 0 | 0.0 | 0.0 | 0.00 | 0.00 | 0.00 | 73 | 1015.3 |
| 20260504033030 | 5 | 0 | 0.0 | 0.0 | 0.00 | 0.00 | 0.00 | 72 | 1015.3 |
| 20260504032510 | 5 | 0 | 0.0 | 0.0 | 0.00 | 0.00 | 0.00 | 73 | 1015.3 |
| 20260504032010 | 5 | 0 | 0.0 | 0.0 | 0.00 | 0.00 | 0.00 | 74 | 1015.3 |
| 20260504031528 | 5 | 0 | 0.0 | 0.0 | 0.00 | 0.00 | 0.00 | 73 | 1015.2 |
| 20260504031008 | 5 | 0 | 0.0 | 0.0 | 0.00 | 0.00 | 0.00 | 73 | 1015.2 |
| 20260504030514 | 5 | 0 | 0.0 | 0.0 | 0.00 | 0.00 | 0.00 | 72 | 1015.2 |
| 20260504030033 | 5 | 0 | 0.0 | 0.0 | 0.00 | 0.00 | 0.00 | 71 | 1015.3 |
| 20260504025512 | 5 | 0 | 0.0 | 0.0 | 0.00 | 0.00 | 0.00 | 70 | 1015.3 |
| 20260504025008 | 5 | 0 | 0.0 | 0.0 | 0.00 | 0.00 | 0.00 | 70 | 1015.3 |
| 20260504024528 | 5 | 0 | 0.0 | 0.0 | 0.00 | 0.00 | 0.00 | 70 | 1015.2 |
| 20260504024022 | 6 | 0 | 0.0 | 0.0 | 0.00 | 0.00 | 0.00 | 71 | 1015.3 |
| 20260504023510 | 6 | 0 | 0.0 | 0.0 | 0.00 | 0.00 | 0.00 | 69 | 1015.2 |
| 20260504023029 | 6 | 0 | 0.0 | 0.0 | 0.00 | 0.00 | 0.00 | 68 | 1015.3 |
| 20260504022508 | 6 | 0 | 0.0 | 0.0 | 0.00 | 0.00 | 0.00 | 69 | 1015.2 |
| 20260504022011 | 6 | 0 | 0.0 | 0.0 | 0.00 | 0.00 | 0.00 | 69 | 1015.2 |
| 20260504021533 | 6 | 0 | 0.0 | 0.0 | 0.00 | 0.00 | 0.00 | 69 | 1015.3 |
| 20260504021012 | 6 | 0 | 0.0 | 0.0 | 0.00 | 0.00 | 0.00 | 68 | 1015.3 |
| 20260504020509 | 6 | 0 | 0.0 | 0.0 | 0.00 | 0.00 | 0.00 | 66 | 1015.2 |
| 20260504020031 | 6 | 0 | 0.0 | 0.0 | 0.00 | 0.00 | 0.00 | 66 | 1015.3 |
| 20260504015510 | 6 | 0 | 0.0 | 1.6 | 0.00 | 0.00 | 0.00 | 66 | 1015.3 |
| 20260504015009 | 6 | 0 | 0.0 | 1.6 | 0.00 | 0.00 | 0.00 | 66 | 1015.3 |
| 20260504014537 | 6 | 0 | 0.0 | 0.0 | 0.00 | 0.00 | 0.00 | 67 | 1015.2 |
| 20260504014432 | 6 | 0 | 0.0 | 0.0 | 0.00 | 0.00 | 0.00 | 64 | 1015.1 |
| 20260504012510 | 7 | 0 | 0.0 | 1.6 | 0.00 | 0.00 | 0.00 | 60 | 1015.1 |
| 20260504012010 | 7 | 0 | 0.0 | 1.6 | 0.00 | 0.00 | 0.00 | 61 | 1015.0 |
| 20260504011528 | 7 | 0 | 0.0 | 0.0 | 0.00 | 0.00 | 0.00 | 65 | 1014.9 |
| 20260504011012 | 7 | 0 | 0.0 | 0.0 | 0.00 | 0.00 | 0.00 | 65 | 1014.8 |
| 20260504010509 | 7 | 0 | 0.0 | 0.0 | 0.00 | 0.00 | 0.00 | 61 | 1014.8 |
| 20260504010030 | 7 | 0 | 0.0 | 0.0 | 0.00 | 0.00 | 0.00 | 65 | 1014.7 |
| 20260504005509 | 7 | 0 | 0.0 | 0.0 | 0.00 | 0.00 | 0.00 | 64 | 1014.6 |
| 20260504005014 | 8 | 0 | 0.0 | 0.0 | 0.00 | 0.00 | 0.00 | 59 | 1014.6 |
| 20260504004528 | 8 | 0 | 0.0 | 0.0 | 0.00 | 0.00 | 0.00 | 57 | 1014.4 |
| 20260504004010 | 8 | 0 | 0.0 | 0.0 | 0.00 | 0.00 | 0.00 | 57 | 1014.4 |
| 20260504003509 | 8 | 0 | 0.0 | 0.0 | 0.00 | 0.00 | 0.00 | 58 | 1014.3 |
| 20260504003034 | 9 | 0 | 0.0 | 0.0 | 0.00 | 0.00 | 0.00 | 57 | 1014.3 |
| 20260504002509 | 9 | 0 | 0.0 | 0.0 | 0.00 | 0.00 | 0.00 | 57 | 1014.2 |
| 20260504002014 | 9 | 0 | 0.0 | 0.0 | 0.00 | 0.00 | 0.00 | 54 | 1014.2 |
| 20260504001532 | 10 | 0 | 0.0 | 0.0 | 0.00 | 0.00 | 0.00 | 53 | 1014.1 |
| 20260504001010 | 10 | 0 | 0.0 | 0.0 | 0.00 | 0.00 | 0.00 | 53 | 1014.0 |
| 20260504000510 | 10 | 0 | 0.0 | 0.0 | 0.00 | 0.00 | 0.00 | 57 | 1014.0 |
| 20260504000028 | 10 | 0 | 0.0 | 0.0 | 0.00 | 0.00 | 0.00 | 51 | 1014.0 |
| 20260503235509 | 11 | 0 | 0.0 | 0.0 | 0.00 | 0.00 | 0.00 | 47 | 1013.9 |
| 20260503235011 | 11 | 0 | 0.0 | 0.0 | 0.00 | 0.00 | 0.00 | 45 | 1013.9 |
| 20260503234529 | 11 | 0 | 0.0 | 0.0 | 0.00 | 0.00 | 0.00 | 45 | 1013.7 |
| 20260503234009 | 12 | 0 | 0.0 | 1.6 | 0.00 | 0.00 | 0.00 | 44 | 1013.7 |
| 20260503233508 | 12 | 0 | 0.0 | 6.4 | 0.00 | 0.00 | 0.00 | 42 | 1013.6 |
| 20260503233029 | 12 | 0 | 0.0 | 6.4 | 0.00 | 0.00 | 0.00 | 41 | 1013.6 |
| 20260503232507 | 13 | 0 | 0.0 | 4.8 | 0.00 | 0.00 | 0.00 | 39 | 1013.6 |
| 20260503232144 | 13 | 211 | 0.0 | 4.8 | 0.00 | 0.00 | 0.00 | 38 | 1013.6 |
| 20260503231530 | 13 | 298 | 0.0 | 4.8 | 0.00 | 0.00 | 0.00 | 37 | 1013.6 |
| 20260503231036 | 13 | 0 | 0.0 | 4.8 | 0.00 | 0.00 | 0.00 | 39 | 1013.6 |
| 20260503230519 | 13 | 0 | 0.0 | 8.0 | 0.00 | 0.00 | 0.00 | 40 | 1013.6 |
| 20260503230029 | 13 | 0 | 1.6 | 8.0 | 0.00 | 0.00 | 0.00 | 38 | 1013.6 |
| 20260503225510 | 13 | 0 | 0.0 | 4.8 | 0.00 | 0.00 | 0.00 | 37 | 1013.5 |
| 20260503225011 | 13 | 0 | 0.0 | 4.8 | 0.00 | 0.00 | 0.00 | 38 | 1013.6 |
| 20260503224600 | 14 | 302 | 0.0 | 4.8 | 0.00 | 0.00 | 0.00 | 37 | 1013.6 |
| 20260503224009 | 14 | 0 | 0.0 | 8.0 | 0.00 | 0.00 | 0.00 | 37 | 1013.5 |
| 20260503223512 | 14 | 252 | 0.0 | 8.0 | 0.00 | 0.00 | 0.00 | 36 | 1013.6 |
| 20260503223028 | 14 | 345 | 0.0 | 11.3 | 0.00 | 0.00 | 0.00 | 38 | 1013.5 |
| 20260503222553 | 14 | 337 | 0.0 | 11.3 | 0.00 | 0.00 | 0.00 | 35 | 1013.5 |
| 20260503222020 | 14 | 150 | 1.6 | 9.7 | 0.00 | 0.00 | 0.00 | 35 | 1013.5 |
| 20260503221529 | 14 | 0 | 1.6 | 8.0 | 0.00 | 0.00 | 0.00 | 35 | 1013.5 |
| 20260503221011 | 14 | 283 | 1.6 | 8.0 | 0.00 | 0.00 | 0.00 | 35 | 1013.6 |
| 20260503220508 | 14 | 0 | 1.6 | 8.0 | 0.00 | 0.00 | 0.00 | 34 | 1013.5 |
| 20260503220030 | 14 | 315 | 1.6 | 9.7 | 0.00 | 0.00 | 0.00 | 35 | 1013.4 |
| 20260503215511 | 14 | 295 | 1.6 | 9.7 | 0.00 | 0.00 | 0.00 | 36 | 1013.4 |
| 20260503215037 | 14 | 275 | 1.6 | 11.3 | 0.00 | 0.00 | 0.00 | 35 | 1013.5 |
| 20260503214528 | 14 | 333 | 3.2 | 11.3 | 0.00 | 0.00 | 0.00 | 34 | 1013.3 |
| 20260503214157 | 14 | 123 | 3.2 | 9.7 | 0.00 | 0.00 | 0.00 | 34 | 1013.2 |
| 20260503214007 | 14 | 123 | 3.2 | 9.7 | 0.00 | 0.00 | 0.00 | 34 | 1013.2 |
| 20260503213508 | 15 | 351 | 1.6 | 14.5 | 0.00 | 0.00 | 0.00 | 35 | 1013.3 |
| 20260503213030 | 14 | 344 | 1.6 | 14.5 | 0.00 | 0.00 | 0.00 | 36 | 1013.0 |
| 20260503212509 | 15 | 295 | 4.8 | 14.5 | 0.00 | 0.00 | 0.00 | 33 | 1013.1 |
| 20260503212009 | 15 | 292 | 1.6 | 9.7 | 0.00 | 0.00 | 0.00 | 35 | 1013.2 |
| 20260503211617 | 15 | 288 | 3.2 | 11.3 | 0.00 | 0.00 | 0.00 | 34 | 1013.2 |
| 20260503211132 | 15 | 57 | 1.6 | 11.3 | 0.00 | 0.00 | 0.00 | 34 | 1013.1 |
| 20260503210513 | 15 | 246 | 3.2 | 11.3 | 0.00 | 0.00 | 0.00 | 33 | 1013.2 |
| 20260503210028 | 15 | 293 | 1.6 | 11.3 | 0.00 | 0.00 | 0.00 | 33 | 1013.2 |
| 20260503205534 | 15 | 0 | 0.0 | 12.9 | 0.00 | 0.00 | 0.00 | 35 | 1013.2 |
| 20260503205007 | 15 | 273 | 3.2 | 12.9 | 0.00 | 0.00 | 0.00 | 35 | 1013.2 |
| 20260503204528 | 15 | 300 | 1.6 | 12.9 | 0.00 | 0.00 | 0.00 | 33 | 1013.2 |
| 20260503204013 | 15 | 273 | 1.6 | 12.9 | 0.00 | 0.00 | 0.00 | 33 | 1013.3 |
| 20260503203538 | 15 | 298 | 3.2 | 12.9 | 0.00 | 0.00 | 0.00 | 32 | 1013.2 |
| 20260503203029 | 15 | 277 | 3.2 | 11.3 | 0.00 | 0.00 | 0.00 | 34 | 1013.2 |
| 20260503202600 | 16 | 254 | 4.8 | 12.9 | 0.00 | 0.00 | 0.00 | 31 | 1013.3 |
| 20260503202017 | 15 | 251 | 0.0 | 12.9 | 0.00 | 0.00 | 0.00 | 31 | 1013.1 |
| 20260503201702 | 15 | 5 | 3.2 | 12.9 | 0.00 | 0.00 | 0.00 | 32 | 1013.1 |
| 20260503201530 | 15 | 5 | 3.2 | 12.9 | 0.00 | 0.00 | 0.00 | 32 | 1013.1 |
| 20260503201011 | 15 | 178 | 3.2 | 11.3 | 0.00 | 0.00 | 0.00 | 35 | 1013.1 |
| 20260503200632 | 16 | 246 | 1.6 | 11.3 | 0.00 | 0.00 | 0.00 | 33 | 1013.1 |
| 20260503200029 | 16 | 332 | 3.2 | 11.3 | 0.00 | 0.00 | 0.00 | 35 | 1013.0 |
| 20260503195538 | 15 | 312 | 3.2 | 12.9 | 0.00 | 0.00 | 0.00 | 31 | 1013.0 |
| 20260503195007 | 15 | 28 | 3.2 | 16.1 | 0.00 | 0.00 | 0.00 | 34 | 1013.1 |
| 20260503194548 | 15 | 298 | 1.6 | 16.1 | 0.00 | 0.00 | 0.00 | 33 | 1013.2 |
| 20260503194036 | 15 | 281 | 1.6 | 12.9 | 0.00 | 0.00 | 0.00 | 34 | 1013.2 |
| 20260503193540 | 15 | 286 | 4.8 | 12.9 | 0.00 | 0.00 | 0.00 | 32 | 1013.3 |
| 20260503193029 | 15 | 199 | 1.6 | 12.9 | 0.00 | 0.00 | 0.00 | 36 | 1013.3 |
| 20260503192509 | 15 | 41 | 1.6 | 12.9 | 0.00 | 0.00 | 0.00 | 35 | 1013.4 |
| 20260503192010 | 15 | 275 | 1.6 | 11.3 | 0.00 | 0.00 | 0.00 | 33 | 1013.5 |
| 20260503191608 | 15 | 346 | 1.6 | 24.1 | 0.00 | 0.00 | 0.00 | 35 | 1013.4 |
| 20260503191008 | 15 | 360 | 3.2 | 24.1 | 0.00 | 0.00 | 0.00 | 39 | 1013.5 |
| 20260503190511 | 15 | 267 | 4.8 | 14.5 | 0.00 | 0.00 | 0.00 | 34 | 1013.6 |
| 20260503190131 | 15 | 247 | 3.2 | 12.9 | 0.00 | 0.00 | 0.00 | 33 | 1013.7 |
| 20260503185510 | 15 | 266 | 3.2 | 11.3 | 0.00 | 0.00 | 0.00 | 35 | 1013.7 |
| 20260503185011 | 15 | 346 | 3.2 | 14.5 | 0.00 | 0.00 | 0.00 | 35 | 1013.8 |
| 20260503184529 | 15 | 360 | 3.2 | 14.5 | 0.00 | 0.00 | 0.00 | 35 | 1013.8 |
| 20260503184010 | 15 | 286 | 3.2 | 11.3 | 0.00 | 0.00 | 0.00 | 34 | 1013.9 |
| 20260503183745 | 14 | 29 | 1.6 | 9.7 | 0.00 | 0.00 | 0.00 | 41 | 1013.9 |
| 20260503183511 | 14 | 29 | 1.6 | 9.7 | 0.00 | 0.00 | 0.00 | 41 | 1013.9 |
| 20260503183030 | 14 | 324 | 1.6 | 11.3 | 0.00 | 0.00 | 0.00 | 44 | 1013.9 |
| 20260503182554 | 14 | 281 | 3.2 | 11.3 | 0.00 | 0.00 | 0.00 | 39 | 1013.9 |
| 20260503182100 | 15 | 259 | 3.2 | 9.7 | 0.00 | 0.00 | 0.00 | 36 | 1014.0 |
| 20260503181527 | 13 | 55 | 3.2 | 9.7 | 0.00 | 0.00 | 0.00 | 40 | 1014.0 |
| 20260503181011 | 14 | 27 | 3.2 | 9.7 | 0.00 | 0.00 | 0.00 | 35 | 1013.9 |
| 20260503180512 | 14 | 0 | 1.6 | 14.5 | 0.00 | 0.00 | 0.00 | 37 | 1013.9 |
| 20260503180042 | 14 | 325 | 3.2 | 14.5 | 0.00 | 0.00 | 0.00 | 39 | 1013.9 |
| 20260503175510 | 14 | 194 | 3.2 | 14.5 | 0.00 | 0.00 | 0.00 | 36 | 1014.1 |
| 20260503175009 | 14 | 294 | 3.2 | 11.3 | 0.00 | 0.00 | 0.00 | 38 | 1014.0 |
| 20260503174708 | 13 | 296 | 6.4 | 11.3 | 0.00 | 0.00 | 0.00 | 37 | 1014.0 |
| 20260503174032 | 13 | 275 | 3.2 | 14.5 | 0.00 | 0.00 | 0.00 | 40 | 1014.0 |
| 20260503173550 | 14 | 45 | 3.2 | 14.5 | 0.00 | 0.00 | 0.00 | 36 | 1014.0 |
| 20260503173028 | 13 | 351 | 4.8 | 14.5 | 0.00 | 0.00 | 0.00 | 36 | 1013.9 |
| 20260503172510 | 13 | 238 | 3.2 | 12.9 | 0.00 | 0.00 | 0.00 | 41 | 1013.9 |
| 20260503172332 | 13 | 263 | 1.6 | 12.9 | 0.00 | 0.00 | 0.00 | 40 | 1014.0 |
| 20260503171529 | 13 | 273 | 3.2 | 12.9 | 0.00 | 0.00 | 0.00 | 38 | 1013.9 |
| 20260503171007 | 14 | 5 | 3.2 | 11.3 | 0.00 | 0.00 | 0.00 | 40 | 1014.1 |
| 20260503170514 | 13 | 257 | 3.2 | 11.3 | 0.00 | 0.00 | 0.00 | 41 | 1013.9 |